Time;durP1;ratioP1;P1;durP2;ratioP2;P2;SDS_P1;SDS_P2;PMS_P1;PMS_P2;Temp;Humidity;BMP_temperature;BMP_pressure;BME280_temperature;BME280_humidity;BME280_pressure;Samples;Min_cycle;Max_cycle;Signal;HPM_P1;HPM_P2
2022/06/23 00:00:21;;;;;;;313.42;295.35;;;;;;;20.50;100.00;96392.94;5072283;28;20232;-65
2022/06/23 00:02:46;;;;;;;325.90;307.13;;;;;;;20.19;100.00;96389.28;5067830;28;20186;-64
2022/06/23 00:05:18;;;;;;;318.15;299.85;;;;;;;20.50;100.00;96387.63;5063289;28;20239;-65
2022/06/23 00:07:50;;;;;;;328.98;309.83;;;;;;;20.26;100.00;96385.16;5072252;28;20668;-65
2022/06/23 00:10:21;;;;;;;321.63;302.98;;;;;;;20.31;100.00;96387.72;5072567;28;20209;-65
2022/06/23 00:12:46;;;;;;;340.88;321.38;;;;;;;20.35;100.00;96395.91;5072697;28;20184;-65
2022/06/23 00:15:27;;;;;;;338.10;318.70;;;;;;;20.38;100.00;96390.00;5071843;28;20189;-64
2022/06/23 00:18:01;;;;;;;256.50;242.13;;;;;;;20.08;100.00;96395.91;5060697;28;20169;-65
2022/06/23 00:20:41;;;;;;;309.98;292.42;;;;;;;20.13;100.00;96388.59;5072105;28;20325;-65
2022/06/23 00:23:16;;;;;;;229.55;216.50;;;;;;;20.02;100.00;96381.91;5070798;28;20269;-66
2022/06/23 00:25:46;;;;;;;232.50;219.32;;;;;;;19.59;100.00;96396.56;5071885;28;20532;-64
2022/06/23 00:28:21;;;;;;;232.02;218.63;;;;;;;19.73;100.00;96390.16;5064325;28;20185;-65
2022/06/23 00:30:55;;;;;;;260.15;245.00;;;;;;;19.32;100.00;96383.97;5072094;28;20248;-65
2022/06/23 00:33:27;;;;;;;304.67;287.27;;;;;;;19.14;100.00;96384.81;5071118;28;20184;-64
2022/06/23 00:35:54;;;;;;;339.05;319.33;;;;;;;19.01;100.00;96386.31;5071722;28;20676;-65
2022/06/23 00:38:28;;;;;;;345.95;326.02;;;;;;;19.20;100.00;96387.09;5072221;28;20202;-65
2022/06/23 00:40:55;;;;;;;318.35;299.90;;;;;;;19.15;100.00;96387.19;5071705;28;20205;-67
2022/06/23 00:43:22;;;;;;;299.13;282.45;;;;;;;19.12;100.00;96390.41;5071399;28;20185;-65
2022/06/23 00:45:48;;;;;;;279.13;262.65;;;;;;;19.32;100.00;96394.59;5072144;28;20178;-64
2022/06/23 00:48:40;;;;;;;277.52;262.27;;;;;;;19.24;100.00;96401.38;5071844;28;20565;-65
2022/06/23 00:51:16;;;;;;;267.17;252.10;;;;;;;19.27;100.00;96392.81;5071684;28;20181;-65
2022/06/23 00:53:58;;;;;;;243.45;229.57;;;;;;;19.13;100.00;96391.97;5071737;28;20169;-65
2022/06/23 00:56:44;;;;;;;207.50;195.77;;;;;;;19.44;100.00;96387.75;5072193;28;20177;-66
2022/06/23 00:59:24;;;;;;;191.00;180.13;;;;;;;19.24;100.00;96393.41;5071871;28;20177;-65
2022/06/23 01:01:59;;;;;;;183.23;172.77;;;;;;;19.15;100.00;96383.72;5071735;28;20521;-65
2022/06/23 01:04:40;;;;;;;153.40;144.52;;;;;;;19.26;100.00;96395.78;5070988;28;20220;-64
2022/06/23 01:07:23;;;;;;;147.25;137.88;;;;;;;19.32;100.00;96390.09;5071264;28;20185;-64
2022/06/23 01:10:06;;;;;;;138.23;130.00;;;;;;;19.35;100.00;96378.84;5071413;28;20165;-64
2022/06/23 01:12:37;;;;;;;138.95;130.88;;;;;;;19.58;100.00;96389.66;5072023;28;20257;-65
2022/06/23 01:15:23;;;;;;;135.25;127.00;;;;;;;19.34;100.00;96393.22;5071642;28;20193;-65
2022/06/23 01:18:06;;;;;;;117.40;110.13;;;;;;;19.17;100.00;96403.59;5071541;28;20642;-64
2022/06/23 01:20:57;;;;;;;119.57;112.03;;;;;;;19.19;100.00;96416.59;5071539;28;20350;-64
2022/06/23 01:23:31;;;;;;;129.33;121.73;;;;;;;19.34;100.00;96416.34;5068710;28;20511;-65
2022/06/23 01:26:17;;;;;;;129.38;120.93;;;;;;;19.37;100.00;96424.53;5067786;28;20202;-65
2022/06/23 01:28:43;;;;;;;130.90;123.15;;;;;;;19.20;100.00;96426.16;5066466;28;20197;-65
2022/06/23 01:31:12;;;;;;;127.18;119.38;;;;;;;19.26;100.00;96423.13;5071221;28;20228;-65
2022/06/23 01:33:53;;;;;;;118.55;111.20;;;;;;;19.06;100.00;96426.09;5072421;28;20186;-64
2022/06/23 01:36:25;;;;;;;136.48;128.65;;;;;;;19.17;100.00;96422.19;5075183;28;20213;-65
2022/06/23 01:38:56;;;;;;;179.02;168.57;;;;;;;19.18;100.00;96428.31;5075310;28;20236;-64
2022/06/23 01:41:28;;;;;;;196.45;185.07;;;;;;;19.30;100.00;96424.13;5059134;28;20193;-65
2022/06/23 01:44:15;;;;;;;223.02;209.98;;;;;;;19.04;100.00;96428.25;5075122;28;20264;-64
2022/06/23 01:46:46;;;;;;;240.32;226.35;;;;;;;19.04;100.00;96428.25;5075637;28;20659;-64
2022/06/23 01:49:38;;;;;;;232.48;219.02;;;;;;;18.84;100.00;96428.53;5074576;28;20591;-63
2022/06/23 01:52:12;;;;;;;217.35;204.77;;;;;;;18.90;100.00;96427.41;5074261;28;20521;-65
2022/06/23 01:54:41;;;;;;;217.73;205.10;;;;;;;19.02;100.00;96428.53;5065780;28;20212;-64
2022/06/23 01:57:20;;;;;;;227.48;214.57;;;;;;;19.00;100.00;96433.34;5074280;28;20224;-65
2022/06/23 02:00:10;;;;;;;273.95;257.67;;;;;;;19.16;100.00;96436.59;5075355;28;20165;-64
2022/06/23 02:02:52;;;;;;;284.63;267.55;;;;;;;18.90;100.00;96433.50;5074058;28;20227;-65
2022/06/23 02:05:23;;;;;;;289.58;272.23;;;;;;;19.04;100.00;96423.75;5074662;28;20197;-68
2022/06/23 02:07:52;;;;;;;238.77;220.80;;;;;;;18.98;100.00;96422.25;5073846;28;20658;-64
2022/06/23 02:10:35;;;;;;;214.27;199.98;;;;;;;18.76;100.00;96435.31;5074785;28;20326;-64
2022/06/23 02:13:11;;;;;;;179.75;167.68;;;;;;;18.55;100.00;96429.50;5056233;28;20181;-65
2022/06/23 02:15:54;;;;;;;150.07;140.03;;;;;;;18.36;100.00;96427.84;5074699;28;20181;-65
2022/06/23 02:18:42;;;;;;;139.38;129.65;;;;;;;18.31;100.00;96430.56;5074605;28;20213;-64
2022/06/23 02:21:24;;;;;;;135.77;126.07;;;;;;;18.59;100.00;96432.34;5073758;28;20202;-65
2022/06/23 02:24:01;;;;;;;151.90;142.10;;;;;;;18.48;100.00;96434.31;5074069;28;20205;-65
2022/06/23 02:26:37;;;;;;;147.20;138.82;;;;;;;18.31;100.00;96434.00;5061136;28;20228;-64
2022/06/23 02:29:21;;;;;;;132.93;124.88;;;;;;;18.37;100.00;96437.38;5063409;28;20203;-65
2022/06/23 02:32:10;;;;;;;135.05;127.53;;;;;;;18.39;100.00;96436.00;5074216;28;20264;-64
2022/06/23 02:35:00;;;;;;;126.50;119.20;;;;;;;18.39;100.00;96441.31;5074064;28;20196;-65
2022/06/23 02:37:53;;;;;;;117.03;110.10;;;;;;;18.37;100.00;96446.13;5073991;28;20221;-65
2022/06/23 02:40:21;;;;;;;118.63;111.68;;;;;;;18.38;100.00;96444.28;5073422;28;20232;-65
2022/06/23 02:42:54;;;;;;;109.70;103.17;;;;;;;18.56;100.00;96449.63;5073654;28;20255;-65
2022/06/23 02:45:50;;;;;;;110.53;104.10;;;;;;;18.64;100.00;96446.34;5073004;28;20173;-65
2022/06/23 02:48:49;;;;;;;107.57;101.07;;;;;;;18.65;100.00;96445.28;5073707;28;20169;-66
2022/06/23 02:51:53;;;;;;;106.68;99.97;;;;;;;18.59;100.00;96449.06;5055627;28;20550;-65
2022/06/23 02:54:41;;;;;;;120.57;113.23;;;;;;;18.48;100.00;96447.59;5073532;28;20173;-65
2022/06/23 02:57:33;;;;;;;107.20;100.88;;;;;;;18.43;100.00;96454.81;5073686;28;20173;-66
2022/06/23 03:00:23;;;;;;;118.97;111.87;;;;;;;18.67;100.00;96468.88;5055901;28;20213;-65
2022/06/23 03:03:10;;;;;;;120.03;112.87;;;;;;;18.74;100.00;96471.97;5072452;28;20646;-65
2022/06/23 03:05:52;;;;;;;121.30;114.00;;;;;;;18.73;100.00;96465.06;5073967;28;20180;-65
2022/06/23 03:08:41;;;;;;;124.37;116.83;;;;;;;18.55;100.00;96461.34;5073288;28;20541;-65
2022/06/23 03:11:14;;;;;;;111.00;103.95;;;;;;;18.75;100.00;96454.97;5073273;28;20669;-66
2022/06/23 03:13:47;;;;;;;103.07;97.07;;;;;;;18.65;100.00;96457.75;5073364;28;20181;-65
2022/06/23 03:16:18;;;;;;;96.93;91.23;;;;;;;18.63;100.00;96465.22;5073226;28;20189;-65
2022/06/23 03:19:02;;;;;;;104.37;98.20;;;;;;;18.52;100.00;96466.38;5073275;28;20247;-65
2022/06/23 03:21:54;;;;;;;101.70;95.47;;;;;;;18.44;100.00;96459.84;5073305;28;20284;-65
2022/06/23 03:24:35;;;;;;;89.77;84.37;;;;;;;18.59;100.00;96467.66;5072668;28;20276;-68
2022/06/23 03:27:16;;;;;;;94.90;89.30;;;;;;;18.38;100.00;96468.94;5069868;28;20659;-65
2022/06/23 03:29:50;;;;;;;107.10;100.75;;;;;;;18.53;100.00;96476.72;5073525;28;20262;-66
2022/06/23 03:32:27;;;;;;;102.17;96.40;;;;;;;18.62;100.00;96475.03;5073014;28;20240;-66
2022/06/23 03:35:06;;;;;;;92.40;86.53;;;;;;;18.48;100.00;96474.13;5073257;28;20185;-65
2022/06/23 03:38:05;;;;;;;96.13;90.50;;;;;;;18.78;100.00;96475.63;5072964;28;20255;-65
2022/06/23 03:43:46;;;;;;;127.83;120.57;;;;;;;18.97;100.00;96473.78;5072765;28;20184;-65
2022/06/23 03:46:31;;;;;;;168.82;159.27;;;;;;;19.18;100.00;96473.47;5072927;28;20176;-65
2022/06/23 03:49:02;;;;;;;156.60;147.82;;;;;;;19.40;100.00;96473.66;5061331;28;20165;-65
2022/06/23 03:51:38;;;;;;;257.13;242.48;;;;;;;19.63;100.00;96472.78;5072215;28;20181;-65
2022/06/23 03:54:14;;;;;;;287.98;272.05;;;;;;;19.90;100.00;96472.84;5072244;28;20704;-65
2022/06/23 03:57:19;;;;;;;354.85;334.83;;;;;;;19.87;100.00;96484.09;5072925;28;20192;-65
2022/06/23 04:00:06;;;;;;;321.13;303.23;;;;;;;19.67;100.00;96483.66;5072493;28;20260;-65
2022/06/23 04:02:42;;;;;;;374.38;352.42;;;;;;;19.68;100.00;96485.19;5067921;28;20185;-66
2022/06/23 04:05:28;;;;;;;396.38;373.52;;;;;;;19.70;100.00;96481.19;5072407;28;20173;-66
2022/06/23 04:08:01;;;;;;;417.10;392.52;;;;;;;19.57;100.00;96484.59;5072059;28;20322;-66
2022/06/23 04:10:43;;;;;;;386.05;363.10;;;;;;;20.29;100.00;96485.69;5072327;28;20213;-65
2022/06/23 04:13:31;;;;;;;428.92;403.98;;;;;;;20.28;100.00;96492.09;5072369;28;20204;-65
2022/06/23 04:16:04;;;;;;;373.00;351.48;;;;;;;20.08;100.00;96492.47;5072329;28;20269;-66
2022/06/23 04:18:31;;;;;;;321.27;302.75;;;;;;;20.42;100.00;96494.81;5057463;28;20170;-67
2022/06/23 04:21:09;;;;;;;321.67;302.02;;;;;;;20.53;100.00;96495.38;5072287;28;20251;-65
2022/06/23 04:23:39;;;;;;;260.00;244.43;;;;;;;21.07;100.00;96495.28;5072311;28;20192;-66
2022/06/23 04:26:19;;;;;;;339.08;319.38;;;;;;;21.30;100.00;96501.47;5070547;28;20653;-65
2022/06/23 04:28:50;;;;;;;493.00;461.48;;;;;;;21.55;100.00;96500.91;5071666;28;20203;-66
2022/06/23 04:31:21;;;;;;;569.80;532.42;;;;;;;21.74;97.06;96495.34;5072030;28;20177;-64
2022/06/23 04:33:47;;;;;;;562.75;526.67;;;;;;;22.04;95.63;96501.84;5072637;28;20183;-65
2022/06/23 04:36:33;;;;;;;535.58;501.63;;;;;;;21.67;97.06;96491.56;5071769;28;20193;-66
2022/06/23 04:39:02;;;;;;;547.55;514.00;;;;;;;21.64;97.25;96500.16;5071848;28;20217;-66
2022/06/23 04:41:35;;;;;;;537.22;502.98;;;;;;;21.13;99.84;96503.97;5071999;28;20205;-66
2022/06/23 04:44:26;;;;;;;234.68;221.00;;;;;;;20.63;100.00;96495.19;5072076;28;20188;-66
2022/06/23 04:47:00;;;;;;;285.52;268.95;;;;;;;20.13;100.00;96503.03;5072440;28;20201;-65
2022/06/23 04:50:01;;;;;;;230.40;217.00;;;;;;;19.71;100.00;96497.94;5072437;28;20200;-66
2022/06/23 04:52:34;;;;;;;193.27;181.30;;;;;;;19.77;100.00;96499.44;5058003;28;20193;-66
2022/06/23 04:55:19;;;;;;;201.55;190.23;;;;;;;19.73;100.00;96501.06;5071912;28;20231;-65
2022/06/23 04:57:54;;;;;;;398.27;374.85;;;;;;;19.83;100.00;96496.41;5070609;28;20172;-65
2022/06/23 05:00:23;;;;;;;410.25;386.38;;;;;;;20.10;100.00;96498.31;5071490;28;20204;-65
2022/06/23 05:02:56;;;;;;;316.98;298.42;;;;;;;20.82;100.00;96506.50;5069698;28;20181;-64
2022/06/23 05:05:32;;;;;;;248.02;233.80;;;;;;;21.46;99.28;96502.69;5071476;28;20211;-65
2022/06/23 05:08:05;;;;;;;302.30;284.88;;;;;;;22.03;93.62;96505.59;5072661;28;20235;-64
2022/06/23 05:10:45;;;;;;;370.92;349.58;;;;;;;22.18;92.80;96510.53;5078216;28;20181;-65
2022/06/23 05:13:21;;;;;;;436.20;411.40;;;;;;;22.77;86.88;96517.25;5075570;28;20169;-65
2022/06/23 05:16:05;;;;;;;501.02;469.88;;;;;;;23.12;85.52;96506.63;5078014;28;20173;-65
2022/06/23 05:18:34;;;;;;;415.02;390.27;;;;;;;23.33;82.86;96504.88;5077957;28;20196;-66
2022/06/23 05:21:10;;;;;;;316.58;298.52;;;;;;;23.63;80.99;96505.06;5077739;28;20276;-65
2022/06/23 05:23:41;;;;;;;336.23;317.55;;;;;;;23.46;81.97;96516.56;5075741;28;20544;-65
2022/06/23 05:26:30;;;;;;;339.50;320.33;;;;;;;23.42;81.05;96510.22;5069150;28;20188;-65
2022/06/23 05:29:01;;;;;;;322.40;304.30;;;;;;;23.73;79.54;96515.44;5077458;28;20518;-65
2022/06/23 05:31:32;;;;;;;335.67;316.90;;;;;;;23.97;78.75;96511.13;5077923;28;20177;-66
2022/06/23 05:34:05;;;;;;;272.25;257.48;;;;;;;23.94;79.38;96505.63;5060084;28;20176;-65
2022/06/23 05:36:41;;;;;;;282.52;267.17;;;;;;;24.13;78.74;96513.31;5078059;28;20185;-65
2022/06/23 05:39:16;;;;;;;302.30;285.33;;;;;;;24.20;77.92;96506.38;5077112;28;20278;-66
2022/06/23 05:41:46;;;;;;;365.52;344.83;;;;;;;24.73;75.48;96513.09;5077892;28;20192;-66
2022/06/23 05:44:17;;;;;;;420.15;395.90;;;;;;;24.97;74.76;96515.16;5056832;28;20654;-66
2022/06/23 05:46:43;;;;;;;347.70;328.30;;;;;;;25.02;74.31;96509.63;5070813;28;20490;-66
2022/06/23 05:49:26;;;;;;;334.08;315.38;;;;;;;25.06;73.54;96516.69;5059649;28;20192;-65
2022/06/23 05:51:57;;;;;;;348.58;329.23;;;;;;;25.23;72.54;96513.09;5059484;28;20184;-65
2022/06/23 05:54:36;;;;;;;187.38;176.00;;;;;;;25.09;72.82;96513.34;5077255;28;20180;-66
2022/06/23 05:57:11;;;;;;;245.05;230.65;;;;;;;25.05;70.69;96508.97;5076835;28;20184;-72
2022/06/23 05:59:47;;;;;;;239.00;225.73;;;;;;;25.23;70.56;96505.06;5078076;28;20181;-67
2022/06/23 06:02:19;;;;;;;263.90;249.02;;;;;;;25.32;70.38;96507.66;5077309;28;20483;-67
2022/06/23 06:04:52;;;;;;;339.80;319.83;;;;;;;25.33;70.42;96507.34;5077495;28;20234;-67
2022/06/23 06:07:25;;;;;;;332.88;312.77;;;;;;;25.30;68.83;96509.91;5077129;28;20296;-68
2022/06/23 06:09:51;;;;;;;342.75;323.35;;;;;;;24.83;70.67;96512.69;5077505;28;20186;-67
2022/06/23 06:12:32;;;;;;;328.00;309.33;;;;;;;25.40;68.58;96515.66;5077475;28;20564;-67
2022/06/23 06:15:01;;;;;;;358.05;337.52;;;;;;;25.55;68.06;96516.94;5077581;28;20176;-67
2022/06/23 06:17:30;;;;;;;362.15;341.45;;;;;;;24.98;69.66;96514.84;5078065;28;20272;-68
2022/06/23 06:19:59;;;;;;;425.23;400.88;;;;;;;25.15;69.68;96517.41;5075882;28;20196;-68
2022/06/23 06:22:58;;;;;;;352.35;332.13;;;;;;;25.20;68.90;96516.44;5074375;28;20646;-68
2022/06/23 06:25:38;;;;;;;365.60;344.52;;;;;;;25.33;68.33;96515.38;5070873;28;20217;-67
2022/06/23 06:28:17;;;;;;;447.02;420.25;;;;;;;25.35;68.44;96525.81;5074930;28;20219;-68
2022/06/23 06:31:14;;;;;;;481.70;452.48;;;;;;;25.82;67.18;96521.78;5074005;28;20307;-68
2022/06/23 06:33:52;;;;;;;465.48;438.50;;;;;;;25.96;66.04;96522.28;5071761;28;20650;-73
2022/06/23 06:36:37;;;;;;;440.70;415.00;;;;;;;26.21;65.52;96530.38;5074682;28;20189;-71
2022/06/23 06:39:32;;;;;;;414.08;390.23;;;;;;;26.43;64.17;96530.78;5074222;28;20241;-73
2022/06/23 06:42:07;;;;;;;465.88;438.27;;;;;;;26.30;64.79;96531.13;5074934;28;20602;-71
2022/06/23 06:44:36;;;;;;;481.65;453.23;;;;;;;26.56;63.82;96538.88;5074399;28;20200;-71
2022/06/23 06:47:02;;;;;;;482.20;453.75;;;;;;;26.51;63.97;96536.41;5076185;28;20186;-70
2022/06/23 06:49:29;;;;;;;392.50;369.80;;;;;;;26.44;63.90;96531.56;5074765;28;20212;-71
2022/06/23 06:51:57;;;;;;;372.42;351.27;;;;;;;26.56;63.22;96539.66;5072987;28;20192;-71
2022/06/23 06:54:29;;;;;;;330.70;312.48;;;;;;;26.69;62.83;96540.47;5071642;28;20189;-72
2022/06/23 06:56:57;;;;;;;353.50;333.67;;;;;;;26.59;63.21;96541.66;5074428;28;20268;-71
2022/06/23 06:59:44;;;;;;;305.08;288.45;;;;;;;26.82;61.96;96550.06;5074200;28;20231;-72
2022/06/23 07:02:24;;;;;;;365.90;345.15;;;;;;;26.98;61.93;96552.91;5072676;28;20292;-71
2022/06/23 07:04:56;;;;;;;340.38;321.50;;;;;;;26.10;64.67;96543.47;5074196;28;20181;-72
2022/06/23 07:07:27;;;;;;;294.38;278.10;;;;;;;26.30;63.51;96541.88;5074340;28;20711;-72
2022/06/23 07:10:16;;;;;;;312.88;295.10;;;;;;;26.68;62.08;96553.13;5074948;28;20174;-72
2022/06/23 07:12:49;;;;;;;236.13;223.02;;;;;;;26.85;61.42;96549.41;5074237;28;20177;-72
2022/06/23 07:15:30;;;;;;;236.77;223.82;;;;;;;26.33;62.89;96541.97;5072603;28;20186;-72
2022/06/23 07:18:11;;;;;;;235.75;223.18;;;;;;;24.81;67.78;96549.78;5056206;28;20200;-72
2022/06/23 07:20:58;;;;;;;436.63;411.00;;;;;;;25.54;66.47;96545.69;5073433;28;20205;-72
2022/06/23 07:23:38;;;;;;;494.23;464.75;;;;;;;26.44;63.07;96542.34;5069008;28;20649;-72
2022/06/23 07:26:29;;;;;;;364.00;343.25;;;;;;;26.37;62.33;96539.41;5073705;28;20593;-72
2022/06/23 07:29:07;;;;;;;424.13;398.60;;;;;;;25.90;64.32;96537.03;5072648;28;20287;-73
2022/06/23 07:31:58;;;;;;;399.75;376.52;;;;;;;26.21;63.07;96531.19;5073476;28;20257;-72
2022/06/23 07:34:26;;;;;;;355.95;335.60;;;;;;;26.54;61.16;96533.03;5076635;28;20257;-72
2022/06/23 07:36:55;;;;;;;361.17;340.48;;;;;;;25.44;65.42;96531.88;5073279;28;20213;-72
2022/06/23 07:39:26;;;;;;;407.00;383.23;;;;;;;26.49;62.38;96537.53;5071578;28;20244;-72
2022/06/23 07:42:07;;;;;;;335.20;316.30;;;;;;;27.13;59.96;96536.88;5072296;28;20239;-72
2022/06/23 07:44:55;;;;;;;263.23;248.48;;;;;;;27.39;59.10;96527.59;5055763;28;20220;-71
2022/06/23 07:47:22;;;;;;;225.20;212.93;;;;;;;27.09;60.31;96519.81;5055606;28;20498;-72
2022/06/23 07:49:47;;;;;;;258.25;244.20;;;;;;;25.38;66.08;96525.94;5074192;28;20189;-72
2022/06/23 07:52:18;;;;;;;280.83;265.85;;;;;;;25.22;66.52;96517.69;5073103;28;20188;-71
2022/06/23 07:54:44;;;;;;;300.20;283.27;;;;;;;26.44;63.12;96510.84;5055224;28;20177;-71
2022/06/23 07:57:11;;;;;;;269.17;254.38;;;;;;;26.45;61.58;96512.44;5073345;28;20192;-71
2022/06/23 07:59:44;;;;;;;263.08;248.90;;;;;;;26.33;62.01;96509.72;5073513;28;20279;-72
2022/06/23 08:02:20;;;;;;;285.38;269.25;;;;;;;26.18;62.50;96506.88;5053892;28;20341;-72
2022/06/23 08:05:03;;;;;;;274.38;259.27;;;;;;;26.84;59.66;96516.34;5076461;28;20181;-72
2022/06/23 08:07:30;;;;;;;224.40;212.13;;;;;;;26.91;59.41;96504.28;5072867;28;20188;-72
2022/06/23 08:10:21;;;;;;;313.35;295.80;;;;;;;25.93;62.06;96503.34;5072424;28;20189;-72
2022/06/23 08:12:58;;;;;;;309.60;291.88;;;;;;;25.96;62.35;96500.00;5063680;28;20173;-72
2022/06/23 08:18:47;;;;;;;239.05;226.02;;;;;;;27.51;58.13;96490.69;5074286;28;20184;-73
2022/06/23 08:21:50;;;;;;;251.25;237.45;;;;;;;27.11;59.79;96492.56;5072538;28;20193;-72
2022/06/23 08:24:20;;;;;;;274.63;259.08;;;;;;;26.37;63.19;96499.88;5011771;28;20201;-72
2022/06/23 08:26:51;;;;;;;277.40;262.50;;;;;;;26.26;62.65;96490.69;5071914;28;20548;-72
2022/06/23 08:29:21;;;;;;;240.60;227.30;;;;;;;27.03;59.68;96491.56;5058512;28;20299;-72
2022/06/23 08:31:47;;;;;;;478.33;448.98;;;;;;;26.41;60.10;96490.03;5073417;28;20273;-72
2022/06/23 08:34:12;;;;;;;493.60;463.00;;;;;;;26.91;58.51;96486.22;5076548;28;20276;-72
2022/06/23 08:36:50;;;;;;;461.10;432.55;;;;;;;27.51;57.91;96488.00;5072682;28;20254;-72
2022/06/23 08:39:23;;;;;;;497.90;467.83;;;;;;;27.69;57.10;96489.28;5071909;28;20225;-73
2022/06/23 08:42:00;;;;;;;447.83;421.42;;;;;;;27.43;58.61;96480.03;5072203;28;20520;-73
2022/06/23 08:44:43;;;;;;;422.52;396.98;;;;;;;27.47;57.61;96475.53;5071545;28;20213;-73
2022/06/23 08:47:14;;;;;;;348.60;327.65;;;;;;;26.42;60.51;96474.66;5072992;28;20181;-73
2022/06/23 08:49:53;;;;;;;209.73;197.68;;;;;;;25.84;59.59;96478.50;5074956;28;20197;-73
2022/06/23 08:52:40;;;;;;;303.42;285.60;;;;;;;26.88;58.28;96476.91;5057115;28;20173;-74
2022/06/23 08:55:16;;;;;;;355.60;334.30;;;;;;;27.48;56.73;96472.47;5072359;28;20256;-73
2022/06/23 08:57:59;;;;;;;297.98;281.13;;;;;;;26.60;58.76;96467.94;5065773;28;20173;-72
2022/06/23 09:00:51;;;;;;;295.00;278.17;;;;;;;27.06;57.48;96460.50;5071948;28;20292;-72
2022/06/23 09:03:24;;;;;;;147.02;138.60;;;;;;;26.43;58.30;96468.19;5060732;28;20185;-73
2022/06/23 09:05:58;;;;;;;219.75;207.10;;;;;;;26.19;58.64;96465.47;5058606;28;20280;-73
2022/06/23 09:08:37;;;;;;;351.08;331.25;;;;;;;25.56;62.08;96462.97;5072548;28;20282;-72
2022/06/23 09:11:05;;;;;;;351.00;329.48;;;;;;;24.92;63.57;96464.41;5072081;28;20192;-73
2022/06/23 09:13:48;;;;;;;526.80;493.60;;;;;;;26.07;60.75;96460.84;5071856;28;20187;-73
2022/06/23 09:16:40;;;;;;;256.15;241.07;;;;;;;25.91;56.70;96460.72;5071900;28;20169;-73
2022/06/23 09:19:27;;;;;;;243.45;229.82;;;;;;;26.55;56.18;96462.81;5027341;28;20243;-73
2022/06/23 09:22:06;;;;;;;134.48;126.53;;;;;;;25.79;58.17;96459.91;5069817;28;20223;-73
2022/06/23 09:24:52;;;;;;;131.65;124.10;;;;;;;26.18;57.42;96461.19;5072317;28;20262;-73
2022/06/23 09:27:36;;;;;;;208.68;196.70;;;;;;;26.87;55.93;96463.75;5072655;28;20204;-73
2022/06/23 09:30:37;;;;;;;142.90;134.63;;;;;;;26.58;55.42;96450.59;5071635;28;20200;-73
2022/06/23 09:33:27;;;;;;;123.68;116.20;;;;;;;26.24;58.03;96449.94;5070858;28;20287;-74
2022/06/23 09:36:17;;;;;;;100.85;94.75;;;;;;;25.79;58.85;96447.25;5071605;28;20525;-73
2022/06/23 09:39:11;;;;;;;173.95;163.13;;;;;;;25.65;59.81;96450.22;5053461;28;20229;-73
2022/06/23 09:42:25;;;;;;;226.52;213.75;;;;;;;25.88;58.79;96447.94;5071715;28;20205;-73
2022/06/23 09:45:02;;;;;;;184.95;174.43;;;;;;;26.32;57.27;96446.34;4960142;28;20243;-74
2022/06/23 09:47:30;;;;;;;498.85;469.95;;;;;;;25.88;55.86;96439.09;4960132;28;20184;-73
2022/06/23 09:50:01;;;;;;;252.05;238.13;;;;;;;26.35;55.83;96443.00;4953427;28;20221;-74
2022/06/23 09:52:47;;;;;;;337.73;318.92;;;;;;;26.18;55.81;96445.88;4963148;28;20197;-73
2022/06/23 09:55:45;;;;;;;483.15;454.95;;;;;;;27.00;53.74;96437.66;4965798;28;20350;-73
2022/06/23 09:58:12;;;;;;;502.23;473.58;;;;;;;27.19;52.64;96427.84;4955891;28;20715;-74
2022/06/23 10:00:59;;;;;;;493.15;464.83;;;;;;;26.55;54.14;96435.13;4973569;28;20212;-73
2022/06/23 10:03:34;;;;;;;426.65;403.00;;;;;;;25.77;56.12;96419.94;4969962;28;20200;-73
2022/06/23 10:06:25;;;;;;;492.27;464.30;;;;;;;25.63;56.86;96420.25;4957693;28;20252;-74
2022/06/23 10:09:16;;;;;;;505.98;477.13;;;;;;;26.06;56.25;96425.16;4948112;28;20287;-73
2022/06/23 10:12:08;;;;;;;444.15;418.75;;;;;;;26.69;54.25;96416.75;4953582;28;20269;-73
2022/06/23 10:14:58;;;;;;;493.27;465.50;;;;;;;27.00;53.14;96425.00;4967844;28;20256;-73
2022/06/23 10:18:01;;;;;;;359.45;339.02;;;;;;;26.38;54.20;96422.72;5072732;28;20177;-73
2022/06/23 10:20:29;;;;;;;360.33;340.25;;;;;;;26.09;54.96;96429.06;5060016;28;20755;-73
2022/06/23 10:23:09;;;;;;;524.33;494.63;;;;;;;26.34;54.88;96427.97;5072454;28;20193;-73
2022/06/23 10:25:52;;;;;;;296.83;280.70;;;;;;;26.05;52.93;96430.84;5074884;28;20241;-73
2022/06/23 10:28:20;;;;;;;447.90;423.35;;;;;;;25.25;57.21;96422.31;5066689;28;20250;-73
2022/06/23 10:31:00;;;;;;;533.10;502.20;;;;;;;26.21;55.95;96425.59;5071893;28;20607;-74
2022/06/23 10:33:44;;;;;;;522.80;492.77;;;;;;;25.99;55.62;96421.44;5074385;28;20659;-73
2022/06/23 10:36:22;;;;;;;516.15;486.42;;;;;;;25.99;56.15;96418.75;5075131;28;20285;-74
2022/06/23 10:39:09;;;;;;;501.67;473.02;;;;;;;26.44;54.55;96410.63;5073919;28;20704;-72
2022/06/23 10:42:01;;;;;;;415.88;392.40;;;;;;;26.82;54.93;96402.94;5069241;28;20204;-73
2022/06/23 10:44:45;;;;;;;462.77;436.75;;;;;;;26.43;54.30;96403.66;5069356;28;20217;-73
2022/06/23 10:47:22;;;;;;;470.20;442.67;;;;;;;26.79;55.02;96411.69;5074145;28;20202;-73
2022/06/23 10:50:12;;;;;;;337.85;318.60;;;;;;;26.96;53.21;96401.81;5076131;28;20188;-73
2022/06/23 10:52:43;;;;;;;307.85;291.08;;;;;;;27.24;52.32;96397.22;5073774;28;20264;-73
2022/06/23 10:55:35;;;;;;;323.20;305.05;;;;;;;27.45;51.89;96392.41;5073651;28;20643;-73
2022/06/23 10:58:01;;;;;;;301.13;284.70;;;;;;;27.09;52.67;96389.88;5074211;28;20291;-74
2022/06/23 11:00:50;;;;;;;285.98;270.20;;;;;;;26.62;53.04;96386.94;5073719;28;20666;-73
2022/06/23 11:03:18;;;;;;;291.33;275.58;;;;;;;26.74;53.02;96385.03;5074136;28;20273;-73
2022/06/23 11:05:53;;;;;;;294.63;278.38;;;;;;;26.40;52.30;96375.56;5074396;28;20264;-76
2022/06/23 11:08:56;;;;;;;284.88;269.33;;;;;;;26.37;53.20;96370.06;5074029;28;20188;-73
2022/06/23 11:11:49;;;;;;;269.80;255.45;;;;;;;26.20;53.06;96371.06;5073389;28;20242;-72
2022/06/23 11:14:50;;;;;;;280.48;265.48;;;;;;;25.95;53.46;96370.28;5073268;28;20185;-72
2022/06/23 11:17:29;;;;;;;284.77;269.33;;;;;;;26.48;52.37;96360.41;5043297;28;20211;-73
2022/06/23 11:20:32;;;;;;;292.23;276.00;;;;;;;26.61;52.34;96359.28;5072845;28;20184;-73
2022/06/23 11:23:18;;;;;;;315.88;298.85;;;;;;;26.64;51.58;96353.22;5066423;28;20203;-73
2022/06/23 11:26:00;;;;;;;305.25;288.52;;;;;;;26.51;51.50;96354.38;5072834;28;20230;-71
2022/06/23 11:28:41;;;;;;;292.80;276.88;;;;;;;26.42;51.62;96356.41;5072862;28;20177;-72
2022/06/23 11:31:15;;;;;;;303.73;287.20;;;;;;;26.28;51.87;96347.91;5073328;28;20227;-73
2022/06/23 11:33:47;;;;;;;289.30;273.25;;;;;;;26.49;52.72;96348.56;5073014;28;20207;-72
2022/06/23 11:37:02;;;;;;;316.60;298.77;;;;;;;26.48;53.18;96358.50;5072736;28;20224;-73
2022/06/23 11:39:33;;;;;;;292.38;276.63;;;;;;;26.63;52.44;96345.50;5033736;28;20233;-72
2022/06/23 11:42:34;;;;;;;302.90;286.40;;;;;;;26.80;52.73;96345.22;5072225;28;20623;-72
2022/06/23 11:45:16;;;;;;;321.00;303.23;;;;;;;26.62;52.26;96342.03;5054776;28;20205;-73
2022/06/23 11:48:17;;;;;;;305.23;288.55;;;;;;;27.20;52.14;96331.72;5053296;28;20596;-73
2022/06/23 11:51:06;;;;;;;319.77;302.33;;;;;;;27.39;51.74;96336.47;5074584;28;20187;-73
2022/06/23 11:53:46;;;;;;;330.90;312.25;;;;;;;27.51;51.78;96339.91;5061292;28;20474;-71
2022/06/23 11:56:14;;;;;;;348.88;329.67;;;;;;;27.64;51.57;96335.97;5072330;28;20181;-69
2022/06/23 11:58:59;;;;;;;352.30;332.50;;;;;;;26.89;52.27;96327.84;5072813;28;20220;-71